createdAt,value
2022-10-30T00:00:38.697Z,12.98
2022-10-30T00:03:05.805Z,12.91
2022-10-30T00:05:33.407Z,12.91
2022-10-30T00:08:00.782Z,12.93
2022-10-30T00:10:28.115Z,12.90
2022-10-30T00:12:55.289Z,12.84
2022-10-30T00:15:22.313Z,12.78
2022-10-30T00:17:49.273Z,12.71
2022-10-30T00:20:16.509Z,12.63
2022-10-30T00:22:43.473Z,12.58
2022-10-30T00:25:10.705Z,12.61
2022-10-30T00:27:37.959Z,12.67
2022-10-30T00:30:05.927Z,12.69
2022-10-30T00:32:32.872Z,12.70
2022-10-30T00:34:59.932Z,12.67
2022-10-30T00:37:26.972Z,12.63
2022-10-30T00:39:53.891Z,12.59
2022-10-30T00:42:20.961Z,12.53
2022-10-30T00:44:49.354Z,12.53
2022-10-30T00:47:31.232Z,12.55
2022-10-30T00:50:22.193Z,12.54
2022-10-30T00:53:05.481Z,12.49
2022-10-30T00:55:35.900Z,12.42
2022-10-30T00:58:04.068Z,12.34
2022-10-30T01:00:31.117Z,12.27
2022-10-30T01:02:58.786Z,12.22
2022-10-30T01:05:27.634Z,12.23
2022-10-30T01:07:55.051Z,12.25
2022-10-30T01:10:22.684Z,12.26
2022-10-30T01:12:50.138Z,12.24
2022-10-30T01:15:17.185Z,12.21
2022-10-30T01:17:52.322Z,12.19
2022-10-30T01:20:35.464Z,12.18
2022-10-30T01:23:31.984Z,12.23
2022-10-30T01:26:39.379Z,12.26
2022-10-30T01:29:15.462Z,12.24
2022-10-30T01:31:56.215Z,12.21
2022-10-30T01:34:28.161Z,12.17
2022-10-30T01:37:07.914Z,12.13
2022-10-30T01:39:37.038Z,12.09
2022-10-30T01:42:41.874Z,12.12
2022-10-30T01:45:09.505Z,12.18
2022-10-30T01:47:57.263Z,12.19
2022-10-30T01:50:50.500Z,12.19
2022-10-30T01:53:24.918Z,12.18
2022-10-30T01:56:02.318Z,12.17
2022-10-30T02:00:13.228Z,12.19
2022-10-30T02:02:41.379Z,12.23
2022-10-30T02:05:11.635Z,12.26
2022-10-30T02:07:39.141Z,12.26
2022-10-30T02:10:07.535Z,12.24
2022-10-30T02:12:34.772Z,12.22
2022-10-30T02:15:01.818Z,12.20
2022-10-30T02:17:29.276Z,12.25
2022-10-30T02:19:56.323Z,12.33
2022-10-30T02:22:25.178Z,12.37
2022-10-30T02:24:52.572Z,12.39
2022-10-30T02:27:20.868Z,12.40
2022-10-30T02:29:49.632Z,12.40
2022-10-30T02:32:17.192Z,12.39
2022-10-30T02:34:44.853Z,12.45
2022-10-30T02:37:11.902Z,12.51
2022-10-30T02:39:39.495Z,12.54
2022-10-30T02:42:06.609Z,12.55
2022-10-30T02:44:34.297Z,12.53
2022-10-30T02:47:01.625Z,12.51
2022-10-30T02:49:28.676Z,12.49
2022-10-30T02:51:55.722Z,12.54
2022-10-30T02:54:22.972Z,12.64
2022-10-30T02:56:50.021Z,12.70
2022-10-30T02:59:17.002Z,12.73
2022-10-30T03:01:44.313Z,12.71
2022-10-30T03:04:11.468Z,12.68
2022-10-30T03:06:38.516Z,12.62
2022-10-30T03:09:05.664Z,12.62
2022-10-30T03:11:33.773Z,12.65
2022-10-30T03:14:00.781Z,12.67
2022-10-30T03:16:31.209Z,12.67
2022-10-30T03:18:58.259Z,12.63
2022-10-30T03:21:26.306Z,12.59
2022-10-30T03:23:54.032Z,12.56
2022-10-30T03:26:21.756Z,12.58
2022-10-30T03:28:54.412Z,12.61
2022-10-30T03:31:21.726Z,12.60
2022-10-30T03:33:57.675Z,12.55
2022-10-30T03:36:25.472Z,12.49
2022-10-30T03:38:52.656Z,12.44
2022-10-30T03:41:19.908Z,12.41
2022-10-30T03:43:47.166Z,12.43
2022-10-30T03:46:14.210Z,12.49
2022-10-30T03:48:41.258Z,12.50
2022-10-30T03:51:09.269Z,12.49
2022-10-30T03:53:36.380Z,12.49
2022-10-30T03:56:04.459Z,12.47
2022-10-30T03:58:52.116Z,12.42
2022-10-30T04:01:21.181Z,12.44
2022-10-30T04:03:53.747Z,12.46
2022-10-30T04:06:21.253Z,12.45
2022-10-30T04:08:48.826Z,12.45
2022-10-30T04:11:16.883Z,12.41
2022-10-30T04:13:44.293Z,12.36
2022-10-30T04:16:13.082Z,12.31
2022-10-30T04:18:41.461Z,12.32
2022-10-30T04:21:08.614Z,12.36
2022-10-30T04:23:36.120Z,12.38
2022-10-30T04:26:04.342Z,12.36
2022-10-30T04:28:31.526Z,12.35
2022-10-30T04:30:59.151Z,12.31
2022-10-30T04:33:26.406Z,12.28
2022-10-30T04:36:12.129Z,12.31
2022-10-30T04:42:13.963Z,12.34
2022-10-30T04:45:15.281Z,12.28
2022-10-30T04:48:03.285Z,12.23
2022-10-30T04:50:32.033Z,12.21
2022-10-30T04:53:03.969Z,12.23
2022-10-30T05:03:39.137Z,12.29
2022-10-30T05:06:25.132Z,12.27
2022-10-30T05:08:52.279Z,12.35
2022-10-30T05:11:29.909Z,12.43
2022-10-30T05:13:57.023Z,12.46
2022-10-30T05:16:24.108Z,12.47
2022-10-30T05:18:51.632Z,12.47
2022-10-30T05:21:18.810Z,12.46
2022-10-30T05:23:46.544Z,12.45
2022-10-30T05:26:13.589Z,12.48
2022-10-30T05:28:42.249Z,12.54
2022-10-30T05:31:09.246Z,12.56
2022-10-30T05:33:51.526Z,12.57
2022-10-30T05:36:19.611Z,12.57
2022-10-30T05:38:47.361Z,12.56
2022-10-30T05:41:21.268Z,12.60
2022-10-30T05:43:48.638Z,12.68
2022-10-30T05:46:15.770Z,12.72
2022-10-30T05:48:43.025Z,12.74
2022-10-30T05:51:10.060Z,12.75
2022-10-30T05:53:39.987Z,12.75
2022-10-30T05:56:09.002Z,12.74
2022-10-30T05:58:36.251Z,12.79
2022-10-30T06:01:07.799Z,12.86
2022-10-30T06:03:39.549Z,12.91
2022-10-30T06:06:06.998Z,12.94
2022-10-30T06:08:33.946Z,12.97
2022-10-30T06:11:05.603Z,12.97
2022-10-30T06:13:38.081Z,12.98
2022-10-30T06:16:11.592Z,13.06
2022-10-30T06:19:05.142Z,13.17
2022-10-30T06:21:32.391Z,13.22
2022-10-30T06:24:22.008Z,13.26
2022-10-30T06:27:15.138Z,13.30
2022-10-30T06:29:42.500Z,13.36
2022-10-30T06:32:09.533Z,13.47
2022-10-30T06:34:36.989Z,13.65
2022-10-30T06:37:04.399Z,13.78
2022-10-30T06:39:31.696Z,13.90
2022-10-30T06:42:17.483Z,14.05
2022-10-30T06:44:54.868Z,14.22
2022-10-30T06:47:21.833Z,14.36
2022-10-30T06:49:48.863Z,14.57
2022-10-30T06:52:16.325Z,14.77
2022-10-30T06:54:43.421Z,14.94
2022-10-30T06:57:39.799Z,15.10
2022-10-30T07:00:20.889Z,15.22
2022-10-30T07:03:09.019Z,15.36
2022-10-30T07:05:36.104Z,15.47
2022-10-30T07:08:03.934Z,15.56
2022-10-30T07:10:31.108Z,15.62
2022-10-30T07:13:21.092Z,15.76
2022-10-30T07:16:17.403Z,15.90
2022-10-30T07:18:49.363Z,15.99
2022-10-30T07:21:16.820Z,16.04
2022-10-30T07:23:43.933Z,16.07
2022-10-30T07:26:19.621Z,16.08
2022-10-30T07:28:47.279Z,16.07
2022-10-30T07:31:42.162Z,16.09
2022-10-30T07:34:35.956Z,16.10
2022-10-30T07:37:26.367Z,16.09
2022-10-30T07:40:01.313Z,16.12
2022-10-30T07:42:47.168Z,16.21
2022-10-30T07:45:52.616Z,16.34
2022-10-30T07:48:38.109Z,16.40
2022-10-30T07:51:23.618Z,16.43
2022-10-30T07:53:50.721Z,16.44
2022-10-30T07:56:18.286Z,16.44
2022-10-30T07:58:54.266Z,16.44
2022-10-30T08:01:40.010Z,16.41
2022-10-30T08:04:24.580Z,16.41
2022-10-30T08:06:56.133Z,16.49
2022-10-30T08:09:23.201Z,16.59
2022-10-30T08:11:50.246Z,16.65
2022-10-30T08:14:17.274Z,16.69
2022-10-30T08:16:44.365Z,16.69
2022-10-30T08:19:11.574Z,16.68
2022-10-30T08:21:38.828Z,16.66
2022-10-30T08:24:12.122Z,16.66
2022-10-30T08:26:40.867Z,16.71
2022-10-30T08:29:10.251Z,16.76
2022-10-30T08:31:38.640Z,16.76
2022-10-30T08:34:35.637Z,16.75
2022-10-30T08:37:08.170Z,16.74
2022-10-30T08:39:35.772Z,16.73
2022-10-30T08:42:32.107Z,16.72
2022-10-30T08:45:04.451Z,16.76
2022-10-30T08:47:39.238Z,16.81
2022-10-30T08:50:07.671Z,16.82
2022-10-30T08:52:36.071Z,16.82
2022-10-30T08:55:03.145Z,16.82
2022-10-30T08:57:38.283Z,16.83
2022-10-30T09:00:06.222Z,16.87
2022-10-30T09:02:59.268Z,16.90
2022-10-30T09:05:46.501Z,16.90
2022-10-30T09:08:35.969Z,16.90
2022-10-30T09:11:08.563Z,16.89
2022-10-30T09:13:40.732Z,16.93
2022-10-30T09:16:08.273Z,16.99
2022-10-30T09:18:36.558Z,17.04
2022-10-30T09:21:05.176Z,17.08
2022-10-30T09:23:40.069Z,17.13
2022-10-30T09:26:37.233Z,17.15
2022-10-30T09:29:10.666Z,17.19
2022-10-30T09:31:56.232Z,17.30
2022-10-30T09:34:24.612Z,17.44
2022-10-30T09:36:58.071Z,17.58
2022-10-30T09:39:25.714Z,17.71
2022-10-30T09:42:11.328Z,17.81
2022-10-30T09:45:30.545Z,17.91
2022-10-30T09:48:03.370Z,18.01
2022-10-30T09:50:56.161Z,18.15
2022-10-30T09:53:30.611Z,18.26
2022-10-30T09:56:01.884Z,18.33
2022-10-30T09:58:47.984Z,18.36
2022-10-30T10:01:49.095Z,18.38
2022-10-30T10:04:33.627Z,18.38
2022-10-30T10:07:22.952Z,18.38
2022-10-30T10:10:00.376Z,18.41
2022-10-30T10:12:50.492Z,18.41
2022-10-30T10:15:40.946Z,18.39
2022-10-30T10:18:26.924Z,18.37
2022-10-30T10:20:55.808Z,18.35
2022-10-30T10:23:44.819Z,18.32
2022-10-30T10:26:47.024Z,18.28
2022-10-30T10:29:29.121Z,18.26
2022-10-30T10:32:13.364Z,18.30
2022-10-30T10:34:55.430Z,18.35
2022-10-30T10:37:40.943Z,18.38
2022-10-30T10:40:26.084Z,18.39
2022-10-30T10:43:09.933Z,18.41
2022-10-30T10:46:08.035Z,18.41
2022-10-30T10:48:59.794Z,18.39
2022-10-30T10:51:32.164Z,18.37
2022-10-30T10:54:04.844Z,18.41
2022-10-30T10:56:33.198Z,18.45
2022-10-30T10:59:21.033Z,18.45
2022-10-30T11:01:57.009Z,18.41
2022-10-30T11:04:42.150Z,18.35
2022-10-30T11:07:15.043Z,18.27
2022-10-30T11:10:05.276Z,18.20
2022-10-30T11:12:38.508Z,18.12
2022-10-30T11:15:29.664Z,18.08
2022-10-30T11:18:10.099Z,18.03
2022-10-30T11:21:11.995Z,17.92
2022-10-30T11:23:40.762Z,17.77
2022-10-30T11:26:23.138Z,17.65
2022-10-30T11:29:09.258Z,17.52
2022-10-30T11:31:40.435Z,17.45
2022-10-30T11:34:19.967Z,17.40
2022-10-30T11:36:59.260Z,17.31
2022-10-30T11:39:34.425Z,17.18
2022-10-30T11:42:23.619Z,17.06
2022-10-30T11:44:50.799Z,16.96
2022-10-30T11:47:23.124Z,16.95
2022-10-30T11:50:04.068Z,16.94
2022-10-30T11:52:31.411Z,16.89
2022-10-30T11:54:59.054Z,16.83
2022-10-30T11:57:31.917Z,16.78
2022-10-30T12:00:04.706Z,16.73
2022-10-30T12:02:43.190Z,16.71
2022-10-30T12:05:35.420Z,16.71
2022-10-30T12:08:11.248Z,16.67
2022-10-30T12:11:07.417Z,16.62
2022-10-30T12:13:39.042Z,16.53
2022-10-30T12:16:18.187Z,16.47
2022-10-30T12:19:04.648Z,16.39
2022-10-30T12:21:40.123Z,16.37
2022-10-30T12:24:09.565Z,16.36
2022-10-30T12:26:38.799Z,16.34
2022-10-30T12:29:08.796Z,16.28
2022-10-30T12:31:42.070Z,16.21
2022-10-30T12:36:53.409Z,16.12
2022-10-30T12:39:32.454Z,16.13
2022-10-30T12:42:00.444Z,16.17
2022-10-30T12:44:41.633Z,16.19
2022-10-30T12:47:18.474Z,16.18
2022-10-30T12:49:48.654Z,16.15
2022-10-30T12:52:56.069Z,16.10
2022-10-30T12:55:30.996Z,16.06
2022-10-30T12:58:01.073Z,16.10
2022-10-30T13:00:27.946Z,16.14
2022-10-30T13:02:58.314Z,16.15
2022-10-30T13:05:35.202Z,16.17
2022-10-30T13:08:19.515Z,16.19
2022-10-30T13:10:49.630Z,16.19
2022-10-30T13:13:21.538Z,16.18
2022-10-30T13:15:53.388Z,16.21
2022-10-30T13:18:22.112Z,16.25
2022-10-30T13:21:18.111Z,16.26
2022-10-30T13:23:51.037Z,16.21
2022-10-30T13:26:39.405Z,16.15
2022-10-30T13:29:31.517Z,16.08
2022-10-30T13:32:25.045Z,15.98
2022-10-30T13:34:51.824Z,15.88
2022-10-30T13:37:28.008Z,15.84
2022-10-30T13:40:34.207Z,15.84
2022-10-30T13:43:43.348Z,15.78
2022-10-30T13:46:17.651Z,15.71
2022-10-30T13:48:53.960Z,15.65
2022-10-30T13:51:26.956Z,15.59
2022-10-30T13:54:01.817Z,15.59
2022-10-30T13:56:28.702Z,15.57
2022-10-30T13:59:07.822Z,15.53
2022-10-30T14:02:13.709Z,15.49
2022-10-30T14:04:52.930Z,15.41
2022-10-30T14:07:28.919Z,15.34
2022-10-30T14:09:58.389Z,15.35
2022-10-30T14:12:46.835Z,15.39
2022-10-30T14:17:31.603Z,15.36
2022-10-30T14:20:26.465Z,15.29
2022-10-30T14:23:11.457Z,15.21
2022-10-30T14:29:42.326Z,15.21
2022-10-30T14:36:07.071Z,15.12
2022-10-30T14:38:35.286Z,15.07
2022-10-30T14:41:27.991Z,15.09
2022-10-30T14:44:04.565Z,15.08
2022-10-30T14:46:34.480Z,15.03
2022-10-30T14:49:30.955Z,14.97
2022-10-30T14:52:13.527Z,14.90
2022-10-30T14:55:09.861Z,14.89
2022-10-30T14:57:45.957Z,14.92
2022-10-30T15:00:22.291Z,14.89
2022-10-30T15:02:52.870Z,14.85
2022-10-30T15:05:41.192Z,14.81
2022-10-30T15:08:23.566Z,14.82
2022-10-30T15:10:59.952Z,14.86
2022-10-30T15:13:27.388Z,14.86
2022-10-30T15:16:02.435Z,14.83
2022-10-30T15:18:30.750Z,14.78
2022-10-30T15:21:02.782Z,14.74
2022-10-30T15:23:30.642Z,14.75
2022-10-30T15:26:06.424Z,14.78
2022-10-30T15:28:36.214Z,14.77
2022-10-30T15:31:05.051Z,14.71
2022-10-30T15:33:33.258Z,14.66
2022-10-30T15:36:00.210Z,14.62
2022-10-30T15:38:27.478Z,14.63
2022-10-30T15:40:59.319Z,14.65
2022-10-30T15:43:31.995Z,14.64
2022-10-30T15:45:59.257Z,14.61
2022-10-30T15:48:31.822Z,14.56
2022-10-30T15:50:58.764Z,14.51
2022-10-30T15:53:28.581Z,14.52
2022-10-30T15:55:58.525Z,14.56
2022-10-30T15:58:25.552Z,14.57
2022-10-30T16:01:00.567Z,14.55
2022-10-30T16:03:28.260Z,14.51
2022-10-30T16:06:16.198Z,14.49
2022-10-30T16:08:44.962Z,14.52
2022-10-30T16:11:12.537Z,14.55
2022-10-30T16:13:39.544Z,14.56
2022-10-30T16:16:07.779Z,14.54
2022-10-30T16:18:36.223Z,14.52
2022-10-30T16:21:06.437Z,14.56
2022-10-30T16:23:38.404Z,14.60
2022-10-30T16:26:05.800Z,14.61
2022-10-30T16:28:35.677Z,14.57
2022-10-30T16:31:04.667Z,14.55
2022-10-30T16:33:33.147Z,14.57
2022-10-30T16:36:00.293Z,14.62
2022-10-30T16:38:29.518Z,14.61
2022-10-30T16:40:56.744Z,14.57
2022-10-30T16:43:34.133Z,14.52
2022-10-30T16:46:16.579Z,14.43
2022-10-30T16:49:01.302Z,14.39
2022-10-30T16:51:28.452Z,14.34
2022-10-30T16:53:57.767Z,14.24
2022-10-30T16:56:31.768Z,14.13
2022-10-30T16:59:07.102Z,14.01
2022-10-30T17:01:35.080Z,13.89
2022-10-30T17:04:02.836Z,13.86
2022-10-30T17:06:43.605Z,13.86
2022-10-30T17:09:22.667Z,13.84
2022-10-30T17:12:12.241Z,13.77
2022-10-30T17:14:48.573Z,13.68
2022-10-30T17:17:36.073Z,13.58
2022-10-30T17:20:06.782Z,13.53
2022-10-30T17:22:36.977Z,13.51
2022-10-30T17:25:17.517Z,13.47
2022-10-30T17:27:47.240Z,13.39
2022-10-30T17:30:40.432Z,13.33
2022-10-30T17:33:23.924Z,13.24
2022-10-30T17:35:51.313Z,13.23
2022-10-30T17:38:18.804Z,13.24
2022-10-30T17:40:45.883Z,13.22
2022-10-30T17:43:15.560Z,13.18
2022-10-30T17:45:43.356Z,13.14
2022-10-30T17:48:16.968Z,13.16
2022-10-30T17:50:47.655Z,13.20
2022-10-30T17:53:22.109Z,13.22
2022-10-30T17:55:56.821Z,13.20
2022-10-30T17:58:36.477Z,13.19
2022-10-30T18:01:03.600Z,13.22
2022-10-30T18:03:30.672Z,13.27
2022-10-30T18:05:58.959Z,13.30
2022-10-30T18:08:26.099Z,13.31
2022-10-30T18:10:53.248Z,13.32
2022-10-30T18:13:20.503Z,13.38
2022-10-30T18:15:54.021Z,13.44
2022-10-30T18:18:21.045Z,13.48
2022-10-30T18:20:51.164Z,13.51
2022-10-30T18:26:15.131Z,13.67
2022-10-30T18:28:42.206Z,13.76
2022-10-30T18:31:10.995Z,13.78
2022-10-30T18:33:38.044Z,13.78
2022-10-30T18:36:12.769Z,13.76
2022-10-30T18:38:39.957Z,13.80
2022-10-30T18:41:07.073Z,13.84
2022-10-30T18:43:34.114Z,13.85
2022-10-30T18:46:01.060Z,13.82
2022-10-30T18:48:28.215Z,13.80
2022-10-30T18:50:55.157Z,13.82
2022-10-30T18:53:22.200Z,13.86
2022-10-30T18:55:49.474Z,13.86
2022-10-30T18:58:16.399Z,13.85
2022-10-30T19:01:10.491Z,13.83
2022-10-30T19:03:35.358Z,13.86
2022-10-30T19:06:02.746Z,13.89
2022-10-30T19:08:30.393Z,13.88
2022-10-30T19:10:58.467Z,13.83
2022-10-30T19:13:25.566Z,13.76
2022-10-30T19:15:59.878Z,13.68
2022-10-30T19:18:28.882Z,13.65
2022-10-30T19:21:04.553Z,13.64
2022-10-30T19:23:35.824Z,13.57
2022-10-30T19:26:02.928Z,13.50
2022-10-30T19:28:31.347Z,13.44
2022-10-30T19:30:58.393Z,13.44
2022-10-30T19:33:28.311Z,13.46
2022-10-30T19:36:04.772Z,13.45
2022-10-30T19:38:32.543Z,13.41
2022-10-30T19:41:00.307Z,13.39
2022-10-30T19:43:28.184Z,13.41
2022-10-30T19:45:57.058Z,13.46
2022-10-30T19:48:55.483Z,13.48
2022-10-30T19:51:12.155Z,13.46
2022-10-30T19:53:40.353Z,13.45
2022-10-30T19:56:09.598Z,13.49
2022-10-30T19:58:36.579Z,13.55
2022-10-30T20:01:03.680Z,13.58
2022-10-30T20:03:30.777Z,13.56
2022-10-30T20:05:58.172Z,13.55
2022-10-30T20:08:25.878Z,13.60
2022-10-30T20:10:57.424Z,13.66
2022-10-30T20:13:25.197Z,13.69
2022-10-30T20:15:53.169Z,13.68
2022-10-30T20:18:24.921Z,13.67
2022-10-30T20:20:55.903Z,13.70
2022-10-30T20:23:23.319Z,13.75
2022-10-30T20:25:52.127Z,13.76
2022-10-30T20:28:38.813Z,13.74
2022-10-30T20:31:06.577Z,13.73
2022-10-30T20:33:36.205Z,13.77
2022-10-30T20:36:03.334Z,13.82
2022-10-30T20:38:33.094Z,13.83
2022-10-30T20:41:02.184Z,13.83
2022-10-30T20:43:33.285Z,13.81
2022-10-30T20:46:00.541Z,13.85
2022-10-30T20:48:27.690Z,13.88
2022-10-30T20:50:55.919Z,13.89
2022-10-30T20:53:23.007Z,13.87
2022-10-30T20:55:50.061Z,13.85
2022-10-30T20:58:17.027Z,13.87
2022-10-30T21:00:44.230Z,13.92
2022-10-30T21:03:14.509Z,13.94
2022-10-30T21:05:44.663Z,13.93
2022-10-30T21:08:13.943Z,13.91
2022-10-30T21:10:41.052Z,13.94
2022-10-30T21:13:09.695Z,14.00
2022-10-30T21:15:39.859Z,14.07
2022-10-30T21:18:07.423Z,14.10
2022-10-30T21:20:34.554Z,14.13
2022-10-30T21:23:01.515Z,14.17
2022-10-30T21:25:29.059Z,14.21
2022-10-30T21:27:59.177Z,14.22
2022-10-30T21:30:26.230Z,14.20
2022-10-30T21:32:53.379Z,14.17
2022-10-30T21:35:20.626Z,14.20
2022-10-30T21:37:47.673Z,14.27
2022-10-30T21:40:14.718Z,14.29
2022-10-30T21:42:41.772Z,14.29
2022-10-30T21:45:09.841Z,14.28
2022-10-30T21:47:37.192Z,14.32
2022-10-30T21:50:07.863Z,14.36
2022-10-30T21:52:38.083Z,14.36
2022-10-30T21:55:05.604Z,14.34
2022-10-30T21:57:32.557Z,14.32
2022-10-30T22:00:01.799Z,14.35
2022-10-30T22:02:34.563Z,14.38
2022-10-30T22:05:01.685Z,14.38
2022-10-30T22:07:28.731Z,14.35
2022-10-30T22:09:55.769Z,14.33
2022-10-30T22:12:22.678Z,14.36
2022-10-30T22:14:49.662Z,14.40
2022-10-30T22:17:16.833Z,14.41
2022-10-30T22:19:43.887Z,14.40
2022-10-30T22:22:11.388Z,14.38
2022-10-30T22:24:38.774Z,14.41
2022-10-30T22:27:06.026Z,14.45
2022-10-30T22:29:32.972Z,14.46
2022-10-30T22:31:59.935Z,14.44
2022-10-30T22:34:29.297Z,14.41
2022-10-30T22:36:56.262Z,14.37
2022-10-30T22:39:26.177Z,14.39
2022-10-30T22:41:53.334Z,14.43
2022-10-30T22:44:23.786Z,14.45
2022-10-30T22:46:51.012Z,14.44
2022-10-30T22:49:18.468Z,14.43
2022-10-30T22:51:45.613Z,14.41
2022-10-30T22:54:12.664Z,14.42
2022-10-30T22:56:39.844Z,14.45
2022-10-30T22:59:08.736Z,14.47
2022-10-30T23:01:36.485Z,14.48
2022-10-30T23:04:04.331Z,14.48
2022-10-30T23:06:31.593Z,14.51
2022-10-30T23:09:00.234Z,14.56
2022-10-30T23:11:27.516Z,14.60
2022-10-30T23:13:54.546Z,14.58
2022-10-30T23:16:23.147Z,14.57
2022-10-30T23:18:50.879Z,14.59
2022-10-30T23:21:20.793Z,14.63
2022-10-30T23:23:47.793Z,14.64
2022-10-30T23:26:19.940Z,14.63
2022-10-30T23:28:47.395Z,14.63
2022-10-30T23:31:20.487Z,14.66
2022-10-30T23:33:49.080Z,14.72
2022-10-30T23:36:16.544Z,14.75
2022-10-30T23:38:43.668Z,14.76
2022-10-30T23:41:10.720Z,14.76
2022-10-30T23:43:37.693Z,14.78
2022-10-30T23:49:46.104Z,14.87
2022-10-30T23:52:14.138Z,14.88
2022-10-30T23:57:49.261Z,14.95
